Time;durP1;ratioP1;P1;durP2;ratioP2;P2;SDS_P1;SDS_P2;PMS_P1;PMS_P2;Temp;Humidity;BMP_temperature;BMP_pressure;BME280_temperature;BME280_humidity;BME280_pressure;Samples;Min_cycle;Max_cycle;Signal;HPM_P1;HPM_P2
2022/01/10 00:01:31;;;;;;;71.50;28.77;;;0.30;99.90;;;-1.83;80.14;99393.16;10402830;27;96601;-78
2022/01/10 00:06:35;;;;;;;80.13;31.70;;;0.30;99.90;;;-1.80;80.03;99401.59;10370798;28;96743;-81
2022/01/10 00:11:38;;;;;;;75.50;29.00;;;0.40;99.90;;;-1.77;79.99;99396.16;10390462;28;96669;-78
2022/01/10 00:16:41;;;;;;;65.07;28.93;;;0.40;99.90;;;-1.76;79.79;99403.03;10363592;28;96710;-81
2022/01/10 00:21:44;;;;;;;57.10;24.93;;;0.40;99.90;;;-1.76;79.48;99404.81;10391379;27;97208;-79
2022/01/10 00:26:49;;;;;;;69.10;27.67;;;0.40;99.90;;;-1.79;79.92;99397.22;10337268;28;96794;-80
2022/01/10 00:31:52;;;;;;;53.77;23.93;;;0.40;99.90;;;-1.87;80.09;99408.16;10361866;28;96699;-80
2022/01/10 00:36:55;;;;;;;66.70;27.27;;;0.30;99.90;;;-1.92;80.49;99402.44;10401782;28;98489;-80
2022/01/10 00:41:58;;;;;;;58.47;25.83;;;0.30;99.90;;;-1.97;80.23;99402.78;10404553;28;96545;-80
2022/01/10 00:47:00;;;;;;;66.67;27.63;;;0.20;99.90;;;-2.03;80.39;99392.81;10375564;28;97380;-80
2022/01/10 00:52:04;;;;;;;56.97;26.43;;;0.20;99.90;;;-2.07;80.56;99406.13;10374858;28;96522;-80
2022/01/10 00:57:07;;;;;;;71.50;28.37;;;0.20;99.90;;;-2.11;80.45;99418.53;10369302;28;96473;-80
2022/01/10 01:02:10;;;;;;;63.73;26.43;;;0.10;99.90;;;-2.14;80.74;99421.34;10354974;28;98379;-80
2022/01/10 01:07:14;;;;;;;65.67;26.57;;;0.10;99.90;;;-2.15;80.68;99419.69;10362199;28;96514;-79
2022/01/10 01:12:30;;;;;;;51.87;23.40;;;0.10;99.90;;;-2.16;80.73;99418.88;10368011;28;96593;-79
2022/01/10 01:17:36;;;;;;;60.40;25.40;;;0.10;99.90;;;-2.20;80.86;99424.38;10365677;27;98224;-79
2022/01/10 01:28:00;;;;;;;63.42;25.23;;;0.00;99.90;;;-2.27;81.23;99420.53;10339912;28;97188;-79
2022/01/10 01:33:03;;;;;;;60.90;25.90;;;0.00;99.90;;;-2.29;81.89;99417.19;10375581;28;96565;-80
2022/01/10 01:38:08;;;;;;;52.80;24.33;;;-0.10;99.90;;;-2.28;82.13;99421.44;10370760;28;96700;-80
2022/01/10 01:43:10;;;;;;;57.00;25.53;;;-0.10;99.90;;;-2.31;81.82;99417.31;10386167;27;98393;-80
2022/01/10 01:48:14;;;;;;;62.40;27.63;;;-0.10;99.90;;;-2.28;82.22;99429.25;10377785;28;97150;-80
2022/01/10 01:53:18;;;;;;;50.57;23.20;;;-0.10;99.90;;;-2.28;82.22;99426.66;10411929;27;97082;-80
2022/01/10 01:58:21;;;;;;;54.80;24.53;;;-0.10;99.90;;;-2.29;82.20;99418.03;10338713;28;97871;-80
2022/01/10 02:03:24;;;;;;;51.13;23.47;;;-0.10;99.90;;;-2.28;81.86;99421.44;10379710;27;97116;-79
2022/01/10 02:08:27;;;;;;;53.47;24.20;;;-0.10;99.90;;;-2.26;81.82;99419.59;10349622;28;96613;-79
2022/01/10 02:13:31;;;;;;;52.97;21.77;;;-0.10;99.90;;;-2.24;81.66;99420.31;10390879;27;98197;-78
2022/01/10 02:18:34;;;;;;;49.67;21.83;;;-0.10;99.90;;;-2.20;81.58;99424.38;10355708;28;96617;-79
2022/01/10 02:23:37;;;;;;;41.13;18.27;;;0.00;99.90;;;-2.14;81.29;99436.13;10375297;27;97271;-78
2022/01/10 02:28:42;;;;;;;47.80;21.47;;;0.00;99.90;;;-2.11;81.04;99436.75;10374156;28;97290;-79
2022/01/10 02:33:47;;;;;;;49.50;22.17;;;0.10;99.90;;;-2.07;80.77;99425.19;10361243;28;98378;-79
2022/01/10 02:38:57;;;;;;;47.77;21.40;;;0.10;99.90;;;-2.03;81.09;99428.44;10383045;27;96417;-79
2022/01/10 02:44:05;;;;;;;48.73;21.17;;;0.10;99.90;;;-2.01;81.04;99429.97;10351967;28;98294;-79
2022/01/10 02:49:37;;;;;;;51.03;23.47;;;0.10;99.90;;;-2.01;80.82;99431.75;10365858;28;98506;-79
2022/01/10 02:54:42;;;;;;;;;;;0.10;99.90;;;-1.97;80.64;99434.03;10344706;28;97577;-79
2022/01/10 02:59:45;;;;;;;57.50;23.93;;;0.10;99.90;;;-1.96;80.55;99427.06;10345942;28;96812;-79
2022/01/10 03:04:48;;;;;;;49.57;23.23;;;0.10;99.90;;;-1.94;80.41;99431.19;10393164;28;96757;-79
2022/01/10 03:09:52;;;;;;;54.37;23.43;;;0.20;99.90;;;-1.89;80.16;99431.72;10377869;28;98317;-79
2022/01/10 03:14:55;;;;;;;56.23;24.53;;;0.20;99.90;;;-1.82;80.20;99444.31;10354523;28;98353;-78
2022/01/10 03:19:58;;;;;;;53.83;24.23;;;0.30;99.90;;;-1.77;79.85;99444.81;10383628;28;97089;-80
2022/01/10 03:25:02;;;;;;;45.67;22.07;;;0.30;99.90;;;-1.73;79.90;99448.88;10415189;27;98114;-80
2022/01/10 03:30:05;;;;;;;45.23;21.73;;;0.40;99.90;;;-1.70;79.77;99451.25;10368391;28;98247;-80
2022/01/10 03:35:10;;;;;;;45.57;20.70;;;0.40;99.90;;;-1.70;79.60;99440.84;10355320;28;96559;-81
2022/01/10 03:40:13;;;;;;;51.77;23.23;;;0.40;99.90;;;-1.69;79.38;99450.31;10407988;27;98402;-80
2022/01/10 03:45:16;;;;;;;53.40;23.40;;;0.40;99.90;;;-1.69;79.14;99464.16;10369083;28;96821;-80
2022/01/10 03:50:19;;;;;;;48.77;22.63;;;0.40;99.90;;;-1.65;79.01;99460.41;10358048;28;97428;-80
2022/01/10 03:55:22;;;;;;;52.53;24.73;;;0.50;99.90;;;-1.61;79.30;99474.06;10356900;28;98906;-80
2022/01/10 04:00:25;;;;;;;60.47;25.20;;;0.50;99.90;;;-1.61;79.39;99479.28;10368069;28;96492;-80
2022/01/10 04:05:28;;;;;;;52.53;22.97;;;0.50;99.90;;;-1.58;79.06;99481.66;10389135;28;98251;-80
2022/01/10 04:10:31;;;;;;;56.80;25.37;;;0.50;99.90;;;-1.57;78.95;99485.91;10380549;27;96842;-78
2022/01/10 04:15:34;;;;;;;50.60;23.30;;;0.60;99.90;;;-1.56;79.56;99500.63;10364831;28;97296;-79
2022/01/10 04:20:37;;;;;;;46.67;21.53;;;0.60;99.90;;;-1.54;79.31;99500.50;10365930;28;97117;-79
2022/01/10 04:25:41;;;;;;;54.00;21.37;;;0.60;99.90;;;-1.54;79.21;99505.72;10387748;28;96620;-79
2022/01/10 04:30:44;;;;;;;45.40;20.33;;;0.60;99.90;;;-1.54;78.91;99516.97;10370356;28;96521;-79
2022/01/10 04:35:48;;;;;;;51.63;23.97;;;0.60;99.90;;;-1.53;79.31;99518.63;10365486;28;97131;-79
2022/01/10 04:40:51;;;;;;;49.40;23.27;;;0.60;99.90;;;-1.52;79.08;99515.09;10373261;27;96997;-80
2022/01/10 04:45:55;;;;;;;48.53;21.83;;;0.60;99.90;;;-1.49;78.72;99525.31;10396137;27;96568;-80
2022/01/10 04:56:15;;;;;;;50.33;24.07;;;0.60;99.90;;;-1.49;79.03;99524.47;10379798;28;96613;-79
2022/01/10 05:01:19;;;;;;;62.33;24.23;;;0.60;99.90;;;-1.48;79.09;99533.97;10355337;28;98454;-80
2022/01/10 05:06:22;;;;;;;54.77;25.73;;;0.60;99.90;;;-1.48;79.12;99539.16;10362227;28;97148;-79
2022/01/10 05:11:25;;;;;;;48.47;22.43;;;0.60;99.90;;;-1.48;79.53;99547.81;10364095;28;96881;-79
2022/01/10 05:16:29;;;;;;;57.57;24.43;;;0.60;99.90;;;-1.52;79.21;99556.78;10359666;28;96667;-79
2022/01/10 05:21:32;;;;;;;50.87;24.70;;;0.60;99.90;;;-1.56;79.34;99547.53;10359986;28;98298;-78
2022/01/10 05:26:35;;;;;;;55.73;25.90;;;0.60;99.90;;;-1.55;79.01;99557.00;10361766;28;97618;-79
2022/01/10 05:31:38;;;;;;;59.90;26.73;;;0.50;99.90;;;-1.54;79.61;99557.84;10358083;28;96559;-79
2022/01/10 05:36:41;;;;;;;70.20;29.27;;;0.50;99.90;;;-1.55;79.21;99567.44;10371836;28;97546;-79
2022/01/10 05:41:44;;;;;;;70.13;29.20;;;0.60;99.90;;;-1.57;79.04;99565.84;10385770;27;96570;-79
2022/01/10 05:46:47;;;;;;;57.90;26.83;;;0.60;99.90;;;-1.64;78.92;99563.66;10380830;28;98099;-79
2022/01/10 05:51:50;;;;;;;57.70;25.37;;;0.60;99.90;;;-1.69;79.24;99562.31;10360914;28;96912;-79
2022/01/10 05:56:53;;;;;;;53.33;23.57;;;0.50;99.90;;;-1.76;79.16;99567.13;10358204;28;98654;-79
2022/01/10 06:01:57;;;;;;;60.70;25.30;;;0.40;99.90;;;-1.81;79.47;99577.00;10349752;28;97107;-78
2022/01/10 06:07:00;;;;;;;49.10;22.43;;;0.40;99.90;;;-1.85;79.41;99580.78;10354153;28;96630;-78
2022/01/10 06:12:03;;;;;;;53.90;24.10;;;0.40;99.90;;;-1.88;79.83;99588.78;10371743;28;96822;-81
2022/01/10 06:17:06;;;;;;;67.50;28.13;;;0.30;99.90;;;-1.90;80.10;99591.50;10381426;27;98362;-81
2022/01/10 06:22:09;;;;;;;71.53;28.60;;;0.30;99.90;;;-1.93;80.30;99609.09;10348070;28;96516;-80
2022/01/10 06:27:12;;;;;;;68.33;28.23;;;0.30;99.90;;;-1.95;80.33;99617.03;10354747;28;96576;-81
2022/01/10 06:32:15;;;;;;;56.27;25.23;;;0.30;99.90;;;-1.94;80.38;99633.47;10365953;28;96842;-80
2022/01/10 06:37:19;;;;;;;63.27;27.57;;;0.30;99.90;;;-1.96;80.54;99627.53;10391857;27;97137;-78
2022/01/10 06:42:22;;;;;;;57.47;26.33;;;0.30;99.90;;;-1.96;80.74;99636.19;10353084;27;96562;-81
2022/01/10 06:47:25;;;;;;;67.67;27.37;;;0.30;99.90;;;-1.92;80.65;99640.28;10361203;28;98503;-80
2022/01/10 06:52:28;;;;;;;49.97;21.97;;;0.30;99.90;;;-1.87;80.75;99655.56;10364806;28;97000;-80
2022/01/10 06:57:31;;;;;;;69.20;30.20;;;0.30;99.90;;;-1.83;81.07;99661.41;10369297;27;98295;-80
2022/01/10 07:02:34;;;;;;;65.97;29.40;;;0.30;99.90;;;-1.76;81.28;99667.88;10367134;28;98506;-80
2022/01/10 07:07:38;;;;;;;61.20;29.10;;;0.40;99.90;;;-1.73;81.23;99667.69;10361992;28;96523;-80
2022/01/10 07:12:41;;;;;;;58.97;27.17;;;0.40;99.90;;;-1.65;81.21;99663.63;10354680;28;98020;-80
2022/01/10 07:17:44;;;;;;;65.30;28.87;;;0.50;99.90;;;-1.59;81.13;99659.75;10345319;28;96656;-80
2022/01/10 07:22:48;;;;;;;63.97;29.27;;;0.50;99.90;;;-1.49;81.19;99662.59;10361096;28;98461;-80
2022/01/10 07:27:51;;;;;;;63.67;29.17;;;0.60;99.90;;;-1.40;81.10;99673.19;10367710;28;98167;-80
2022/01/10 07:32:54;;;;;;;65.93;31.07;;;0.70;99.90;;;-1.35;81.15;99678.09;10378945;27;96688;-80
2022/01/10 07:37:57;;;;;;;75.30;32.53;;;0.70;99.90;;;-1.24;81.23;99686.03;10392530;27;97470;-79
2022/01/10 07:43:00;;;;;;;79.50;33.70;;;0.80;99.90;;;-0.73;81.45;99690.31;10368914;28;97253;-79
2022/01/10 07:48:04;;;;;;;78.10;35.13;;;0.90;99.90;;;-0.11;80.68;99692.81;10373647;28;97341;-80
2022/01/10 07:53:07;;;;;;;67.50;30.53;;;1.20;99.90;;;0.41;78.75;99688.91;10385220;27;96579;-79
2022/01/10 07:58:10;;;;;;;73.80;34.93;;;1.50;99.90;;;0.90;77.54;99696.50;10381539;28;96876;-79
2022/01/10 08:03:13;;;;;;;63.07;30.93;;;1.90;99.90;;;1.41;75.50;99690.72;10371920;27;96728;-79
2022/01/10 08:08:16;;;;;;;73.07;33.37;;;2.20;99.90;;;1.93;73.86;99701.44;10342342;28;98138;-80
2022/01/10 08:13:19;;;;;;;62.20;30.00;;;2.60;99.90;;;2.33;71.78;99701.59;10378097;27;97006;-80
2022/01/10 08:18:22;;;;;;;53.73;26.43;;;2.90;99.90;;;2.56;69.87;99699.69;10363657;28;98190;-80
2022/01/10 08:23:25;;;;;;;53.17;26.97;;;3.20;99.90;;;2.57;68.65;99702.16;10373204;28;96960;-79
2022/01/10 08:28:28;;;;;;;60.53;29.90;;;3.50;99.90;;;2.49;68.41;99707.22;10369386;28;96740;-80
2022/01/10 08:33:31;;;;;;;55.47;25.83;;;3.60;99.90;;;2.35;68.01;99713.63;10369865;27;97178;-79
2022/01/10 08:38:34;;;;;;;69.60;32.73;;;3.70;99.90;;;2.28;67.86;99706.38;10352101;28;98138;-80
2022/01/10 08:43:37;;;;;;;68.23;34.97;;;3.70;99.90;;;2.36;67.98;99710.06;10351351;28;96616;-80
2022/01/10 08:48:40;;;;;;;73.07;38.53;;;3.80;99.90;;;2.63;67.16;99706.06;10374286;27;96856;-80
2022/01/10 08:53:43;;;;;;;74.67;39.30;;;4.00;99.90;;;2.85;66.97;99723.47;10377606;27;98535;-78
2022/01/10 08:58:46;;;;;;;59.63;31.70;;;4.20;99.90;;;3.23;65.98;99728.88;10364546;28;98269;-79
2022/01/10 09:03:50;;;;;;;60.43;31.37;;;4.50;99.90;;;3.57;64.25;99719.88;10350900;28;97389;-78
2022/01/10 09:08:53;;;;;;;134.40;52.30;;;4.80;99.90;;;3.29;63.39;99718.81;10357848;28;98299;-79
2022/01/10 09:13:56;;;;;;;92.80;40.60;;;4.80;99.90;;;2.83;64.21;99722.78;10345251;28;97358;-79
2022/01/10 09:18:59;;;;;;;54.80;28.07;;;4.60;99.90;;;2.53;65.21;99732.25;10361059;28;97345;-79
2022/01/10 09:24:03;;;;;;;64.63;29.57;;;4.50;99.90;;;3.10;64.74;99735.31;10366307;28;96662;-79
2022/01/10 09:29:07;;;;;;;74.47;31.27;;;4.70;99.90;;;4.13;63.25;99729.75;10359198;28;96559;-80
2022/01/10 09:34:11;;;;;;;44.60;23.93;;;5.30;99.90;;;5.10;61.06;99731.28;10367390;28;97508;-80
2022/01/10 09:39:14;;;;;;;41.00;22.33;;;6.10;99.90;;;5.96;58.10;99727.53;10358430;28;96901;-80
2022/01/10 09:44:17;;;;;;;50.07;25.13;;;6.90;98.10;;;6.58;56.17;99723.94;10362817;28;98630;-80
2022/01/10 09:49:21;;;;;;;43.80;23.83;;;7.50;98.90;;;6.89;53.41;99728.78;10359620;28;97040;-80
2022/01/10 09:54:23;;;;;;;39.73;22.73;;;8.00;95.80;;;6.65;51.43;99724.16;10361519;28;96599;-80
2022/01/10 09:59:27;;;;;;;36.77;20.73;;;8.10;92.40;;;6.07;53.10;99716.75;10361210;28;96584;-80
2022/01/10 10:04:35;;;;;;;37.80;20.63;;;7.80;88.80;;;5.29;53.23;99734.81;10365850;28;96554;-80
2022/01/10 10:09:39;;;;;;;43.63;20.97;;;7.40;85.70;;;4.58;54.69;99735.28;10361478;27;96958;-79
2022/01/10 10:14:46;;;;;;;34.50;19.33;;;6.80;85.50;;;3.97;55.78;99736.41;10366162;28;98241;-79
2022/01/10 10:19:50;;;;;;;32.37;17.43;;;6.20;84.50;;;3.55;57.86;99732.31;10340664;28;96595;-79
2022/01/10 10:24:52;;;;;;;28.33;15.13;;;5.80;86.00;;;3.26;58.46;99729.59;10374437;27;96878;-79
2022/01/10 10:29:57;;;;;;;21.70;11.10;;;5.50;87.00;;;3.04;59.28;99741.09;10363750;28;98662;-79
2022/01/10 10:35:00;;;;;;;31.20;13.57;;;5.20;85.20;;;2.88;58.92;99737.16;10344781;28;98571;-79
2022/01/10 10:40:07;;;;;;;24.30;11.60;;;5.00;86.60;;;2.81;59.57;99736.00;10359354;28;96612;-79
2022/01/10 10:45:13;;;;;;;19.60;9.47;;;4.90;86.80;;;2.79;57.97;99721.34;10363367;28;96623;-79
2022/01/10 10:50:15;;;;;;;13.37;7.73;;;4.80;79.80;;;2.77;56.46;99739.03;10411795;27;96516;-79
2022/01/10 10:55:18;;;;;;;11.87;6.23;;;4.80;81.00;;;2.89;55.19;99738.81;10393588;27;96923;-79
2022/01/10 11:00:21;;;;;;;9.60;5.33;;;4.90;80.20;;;3.80;54.25;99739.69;10366082;27;98261;-80
2022/01/10 11:05:25;;;;;;;12.57;6.30;;;5.40;81.20;;;4.41;51.56;99739.44;10402828;27;97390;-81
2022/01/10 11:10:28;;;;;;;12.87;6.37;;;6.00;77.70;;;4.56;50.13;99753.84;10364619;28;98796;-81
2022/01/10 11:15:33;;;;;;;10.33;5.70;;;6.20;74.00;;;4.80;48.04;99757.84;10367959;28;97234;-81
2022/01/10 11:20:46;;;;;;;11.37;6.10;;;6.40;71.40;;;4.59;47.12;99752.72;10377627;28;96703;-80
2022/01/10 11:26:08;;;;;;;14.30;6.13;;;6.30;66.90;;;4.29;47.95;99751.09;10362889;28;97457;-80
2022/01/10 11:31:22;;;;;;;10.00;5.23;;;6.10;67.70;;;4.07;47.52;99751.34;10373197;28;98147;-80
2022/01/10 11:36:27;;;;;;;10.37;4.67;;;6.00;65.20;;;3.86;46.68;99754.94;10368372;28;98433;-80
2022/01/10 11:41:32;;;;;;;8.77;4.67;;;5.80;63.20;;;3.75;46.78;99760.28;10367351;28;96897;-80
2022/01/10 11:46:46;;;;;;;10.50;5.03;;;5.70;64.00;;;3.66;47.03;99759.31;10374538;27;96718;-80
2022/01/10 11:51:52;;;;;;;9.63;4.50;;;5.60;63.80;;;3.63;46.50;99764.81;10373730;28;96482;-79
2022/01/10 11:57:12;;;;;;;15.23;5.87;;;5.60;62.80;;;3.59;47.14;99766.03;10363336;28;98090;-79
2022/01/10 12:02:21;;;;;;;13.80;5.30;;;5.50;64.20;;;3.58;47.13;99771.44;10383618;28;96687;-79
2022/01/10 12:07:27;;;;;;;9.10;4.50;;;5.50;62.10;;;3.58;46.70;99774.91;10372201;28;96498;-79
2022/01/10 12:12:43;;;;;;;11.27;4.80;;;5.40;62.50;;;3.57;46.68;99770.63;10386843;27;97117;-79
2022/01/10 12:17:46;;;;;;;10.27;5.13;;;5.40;62.90;;;3.60;47.33;99780.00;10356450;28;98427;-79
2022/01/10 12:22:53;;;;;;;8.53;4.23;;;5.50;63.70;;;3.57;47.53;99781.13;10374552;28;96518;-79
2022/01/10 12:28:00;;;;;;;8.03;4.70;;;5.50;64.20;;;3.56;47.88;99794.41;10360330;28;97624;-78
2022/01/10 12:33:03;;;;;;;11.30;5.73;;;5.50;63.60;;;3.55;48.26;99790.94;10345766;28;97162;-80
2022/01/10 12:38:06;;;;;;;10.63;5.43;;;5.40;63.40;;;3.56;48.55;99800.47;10366011;28;96569;-79
2022/01/10 12:43:08;;;;;;;6.57;3.47;;;5.40;64.60;;;3.54;47.78;99801.56;10357933;28;96969;-79
2022/01/10 12:48:12;;;;;;;7.87;4.27;;;5.40;64.10;;;3.49;48.48;99809.88;10387911;28;96679;-80
2022/01/10 12:53:15;;;;;;;8.30;4.03;;;5.40;64.10;;;3.45;48.75;99813.72;10379649;28;98532;-80
2022/01/10 12:58:21;;;;;;;8.63;3.87;;;5.40;64.30;;;3.44;48.61;99825.19;10390023;28;96514;-80
2022/01/10 13:03:24;;;;;;;9.80;4.40;;;5.30;64.30;;;3.45;49.27;99829.47;10369264;27;97337;-80
2022/01/10 13:08:35;;;;;;;8.53;4.47;;;5.30;64.70;;;3.44;48.81;99838.31;10398910;27;98633;-80
2022/01/10 13:13:39;;;;;;;10.43;4.20;;;5.40;65.50;;;3.41;49.02;99844.66;10375662;28;97236;-79
2022/01/10 13:18:56;;;;;;;8.67;4.40;;;5.30;64.70;;;3.39;48.94;99854.47;10383597;27;96678;-79
2022/01/10 13:24:23;;;;;;;8.30;4.00;;;5.30;64.70;;;3.39;48.67;99864.97;10367346;28;97183;-79
2022/01/10 13:29:56;;;;;;;6.37;3.60;;;5.30;64.50;;;3.36;48.64;99873.13;10366067;28;97443;-80
2022/01/10 13:35:06;;;;;;;7.07;3.57;;;5.30;64.10;;;3.31;49.03;99875.31;10389913;28;98123;-79
2022/01/10 13:40:31;;;;;;;7.33;3.80;;;5.30;65.00;;;3.28;48.13;99883.44;10379157;27;96522;-80
2022/01/10 13:45:44;;;;;;;8.07;3.97;;;5.30;63.90;;;3.30;48.52;99894.66;10373898;28;96515;-80
2022/01/10 13:50:56;;;;;;;9.40;3.60;;;5.20;63.20;;;3.32;48.25;99897.97;10374432;28;98073;-80
2022/01/10 13:56:15;;;;;;;6.97;3.50;;;5.30;62.90;;;3.26;48.45;99898.50;10355434;28;98169;-80
2022/01/10 14:01:21;;;;;;;6.00;2.30;;;5.20;63.80;;;3.21;48.23;99898.88;10362909;28;98097;-80
2022/01/10 14:06:25;;;;;;;5.93;2.37;;;5.20;63.30;;;3.17;47.94;99907.13;10375166;27;97953;-80
2022/01/10 14:11:30;;;;;;;9.83;2.30;;;5.20;62.60;;;3.14;47.44;99920.50;10372642;28;96857;-81
2022/01/10 14:16:37;;;;;;;5.00;2.40;;;5.10;62.60;;;3.09;47.81;99923.50;10372668;28;97212;-79
2022/01/10 14:21:40;;;;;;;7.43;2.90;;;5.10;63.20;;;2.95;48.45;99929.09;10391723;27;98532;-79
2022/01/10 14:26:43;;;;;;;27.70;9.80;;;5.00;63.60;;;2.79;49.17;99934.75;10381951;27;96889;-78
2022/01/10 14:31:47;;;;;;;7.97;3.53;;;4.90;64.30;;;2.64;49.84;99938.63;10397810;27;98281;-78
2022/01/10 14:36:49;;;;;;;24.63;8.30;;;4.70;64.30;;;2.48;50.03;99938.16;10371329;28;96545;-78
2022/01/10 14:41:52;;;;;;;20.03;8.17;;;4.60;64.40;;;2.34;50.54;99957.59;10390590;27;96920;-77
2022/01/10 14:46:55;;;;;;;19.10;6.90;;;4.50;65.00;;;2.18;51.33;99971.09;10355979;28;97170;-78
2022/01/10 14:51:58;;;;;;;18.80;7.03;;;4.40;66.00;;;1.97;52.43;99978.00;10364880;28;98512;-79
2022/01/10 14:57:05;;;;;;;17.87;7.60;;;4.20;67.00;;;1.79;54.48;99988.94;10349147;28;97981;-78
2022/01/10 15:02:08;;;;;;;19.13;8.67;;;4.00;68.90;;;1.74;56.08;99993.72;10355858;28;98431;-78
2022/01/10 15:07:11;;;;;;;25.30;12.30;;;3.90;71.30;;;1.63;55.92;100003.31;10355557;28;97931;-78
2022/01/10 15:12:14;;;;;;;23.77;10.27;;;3.80;70.70;;;1.41;56.21;100010.16;10346924;28;97853;-79
2022/01/10 15:17:17;;;;;;;15.90;8.10;;;3.60;70.50;;;1.18;57.06;100014.47;10388359;27;97892;-78
2022/01/10 15:22:20;;;;;;;14.87;6.70;;;3.40;71.50;;;0.97;58.44;100031.75;10360993;28;97012;-78
2022/01/10 15:27:24;;;;;;;15.50;7.30;;;3.30;72.90;;;0.74;59.86;100046.47;10373957;28;96644;-79
2022/01/10 15:32:27;;;;;;;13.33;7.67;;;3.00;75.80;;;0.58;61.07;100061.56;10374800;28;97311;-79
2022/01/10 15:37:30;;;;;;;21.07;8.53;;;2.80;75.90;;;0.43;62.09;100073.94;10372573;28;96882;-79
2022/01/10 15:42:34;;;;;;;15.60;7.00;;;2.70;77.80;;;0.32;63.37;100086.91;10366789;28;96692;-79
2022/01/10 15:47:38;;;;;;;13.27;6.40;;;2.60;79.30;;;0.25;64.16;100081.25;10395041;27;96418;-79
2022/01/10 15:52:44;;;;;;;12.43;6.57;;;2.50;80.10;;;0.23;64.80;100086.56;10395838;28;96611;-78
2022/01/10 15:57:48;;;;;;;17.00;9.73;;;2.40;81.80;;;0.23;64.98;100099.66;10382554;27;97052;-78
2022/01/10 16:02:51;;;;;;;16.53;8.40;;;2.40;83.30;;;0.18;65.71;100113.97;10381884;28;97088;-78
2022/01/10 16:07:54;;;;;;;17.50;10.53;;;2.30;84.80;;;0.12;66.09;100117.84;10380569;28;96560;-78
2022/01/10 16:12:57;;;;;;;32.67;17.47;;;2.30;84.60;;;0.09;66.66;100123.28;10385756;27;99420;-77
2022/01/10 16:18:00;;;;;;;21.50;10.77;;;2.20;86.30;;;0.05;67.18;100136.63;10360053;28;96622;-77
2022/01/10 16:23:03;;;;;;;18.80;9.67;;;2.20;86.30;;;0.00;66.98;100142.19;10364659;28;97294;-78
2022/01/10 16:28:06;;;;;;;20.37;9.23;;;2.10;87.30;;;-0.10;67.22;100148.94;10386368;27;98191;-78
2022/01/10 16:33:10;;;;;;;19.53;8.67;;;2.10;88.80;;;-0.19;67.94;100149.53;10358469;28;98549;-78
2022/01/10 16:38:13;;;;;;;21.10;8.63;;;2.00;88.50;;;-0.19;69.04;100153.00;10407807;27;96574;-77
2022/01/10 16:43:21;;;;;;;20.73;10.43;;;2.00;89.50;;;-0.22;68.99;100170.66;10374989;28;96564;-77
2022/01/10 16:48:24;;;;;;;24.13;10.97;;;1.90;90.10;;;-0.32;69.27;100176.47;10346489;28;96868;-77
2022/01/10 16:53:27;;;;;;;15.90;7.70;;;1.90;90.80;;;-0.41;69.31;100187.50;10389398;27;96574;-77
2022/01/10 16:58:30;;;;;;;25.27;10.80;;;1.80;90.80;;;-0.48;69.61;100198.41;10377551;27;96782;-78
2022/01/10 17:03:33;;;;;;;28.80;11.87;;;1.70;91.70;;;-0.59;69.97;100204.34;10369617;28;96582;-77
2022/01/10 17:08:36;;;;;;;23.17;10.50;;;1.60;93.00;;;-0.72;70.83;100201.66;10350622;28;97633;-78
2022/01/10 17:13:39;;;;;;;21.63;9.93;;;1.50;93.90;;;-0.78;71.37;100217.72;10337992;28;96484;-78
2022/01/10 17:18:42;;;;;;;26.40;11.20;;;1.50;95.70;;;-0.84;71.24;100229.34;10338194;28;96541;-78
2022/01/10 17:23:46;;;;;;;30.97;13.60;;;1.40;95.10;;;-0.97;71.27;100240.63;10361970;28;96516;-77
2022/01/10 17:28:49;;;;;;;35.83;16.20;;;1.30;95.10;;;-1.14;71.56;100245.09;10345649;28;97021;-78
2022/01/10 17:33:52;;;;;;;31.67;16.00;;;1.20;94.90;;;-1.34;72.17;100253.25;10342983;28;96827;-78
2022/01/10 17:38:55;;;;;;;43.27;18.07;;;1.00;95.60;;;-1.54;72.63;100269.25;10378029;28;96561;-78
2022/01/10 17:44:00;;;;;;;40.97;19.10;;;0.80;96.30;;;-1.76;73.49;100290.47;10363403;28;98167;-78
2022/01/10 17:49:09;;;;;;;53.00;21.60;;;0.60;97.00;;;-1.93;74.11;100300.06;10337465;28;96653;-78
2022/01/10 17:54:29;;;;;;;55.67;22.50;;;0.40;98.20;;;-2.07;75.08;100313.03;10337201;28;96563;-77
2022/01/10 17:59:32;;;;;;;42.77;19.30;;;0.30;98.70;;;-2.12;76.01;100317.66;10381478;27;96862;-78
2022/01/10 18:04:35;;;;;;;48.37;20.13;;;0.20;99.90;;;-2.19;76.39;100326.72;10358837;28;97239;-78
2022/01/10 18:09:38;;;;;;;62.23;25.97;;;0.10;99.90;;;-2.29;76.57;100330.75;10362653;28;96789;-78
2022/01/10 18:14:44;;;;;;;94.90;33.07;;;0.00;99.90;;;-2.39;77.33;100340.00;10365356;28;96653;-78
2022/01/10 18:19:47;;;;;;;73.10;28.97;;;-0.10;99.90;;;-2.47;77.02;100346.41;10361817;28;100241;-78
2022/01/10 18:24:50;;;;;;;41.07;18.17;;;-0.20;99.90;;;-2.49;77.92;100355.25;10360171;28;98822;-78
2022/01/10 18:29:53;;;;;;;32.00;13.63;;;-0.20;99.90;;;-2.33;78.99;100357.88;10371020;28;96935;-77
2022/01/10 18:34:56;;;;;;;31.43;12.57;;;-0.10;99.90;;;-2.11;78.08;100366.19;10362341;28;98339;-79
2022/01/10 18:40:02;;;;;;;24.17;10.63;;;0.00;99.90;;;-1.99;77.37;100365.53;10377098;28;97198;-78
2022/01/10 18:45:06;;;;;;;25.87;10.33;;;0.20;99.90;;;-2.02;76.63;100355.28;10364779;28;99673;-78
2022/01/10 18:50:11;;;;;;;20.90;9.43;;;0.20;99.90;;;-2.09;76.57;100372.16;10383389;27;97829;-78
2022/01/10 18:55:14;;;;;;;32.97;15.43;;;0.10;99.90;;;-2.22;76.56;100378.94;10398025;27;96654;-79
2022/01/10 19:00:17;;;;;;;39.60;17.83;;;0.10;99.90;;;-2.34;76.84;100390.88;10366089;27;97481;-78
2022/01/10 19:05:21;;;;;;;28.73;13.50;;;-0.10;99.90;;;-2.39;77.41;100403.28;10382729;28;97143;-77
2022/01/10 19:10:27;;;;;;;26.37;12.53;;;-0.10;99.90;;;-2.37;77.75;100403.19;10340465;28;98917;-78
2022/01/10 19:15:29;;;;;;;34.23;13.20;;;-0.10;99.90;;;-2.41;77.60;100415.53;10352404;28;98478;-78
2022/01/10 19:20:33;;;;;;;42.80;18.53;;;-0.20;99.90;;;-2.52;78.00;100428.25;10361945;28;99030;-78
2022/01/10 19:25:37;;;;;;;45.10;17.83;;;-0.30;99.90;;;-2.61;78.36;100428.72;10365634;28;97761;-78
2022/01/10 19:30:40;;;;;;;36.93;16.37;;;-0.30;99.90;;;-2.64;78.64;100440.13;10397294;27;96649;-78
2022/01/10 19:35:43;;;;;;;34.40;14.50;;;-0.40;99.90;;;-2.65;78.78;100429.78;10368602;28;96889;-78
2022/01/10 19:40:45;;;;;;;25.37;11.20;;;-0.40;99.90;;;-2.64;78.62;100432.31;10360481;28;97864;-77
2022/01/10 19:45:48;;;;;;;27.83;11.20;;;-0.40;99.90;;;-2.62;78.58;100440.91;10367255;28;96594;-77
2022/01/10 19:50:51;;;;;;;23.40;10.33;;;-0.40;99.90;;;-2.53;78.78;100449.97;10371736;28;97720;-78
2022/01/10 19:55:55;;;;;;;24.80;10.57;;;-0.30;99.90;;;-2.42;78.35;100445.91;10369432;27;97389;-78
2022/01/10 20:00:59;;;;;;;28.37;12.23;;;-0.20;99.90;;;-2.26;77.93;100453.78;10367802;28;97226;-78
2022/01/10 20:06:05;;;;;;;25.53;11.03;;;-0.10;99.90;;;-2.17;77.01;100449.84;10400657;27;96939;-78
2022/01/10 20:11:09;;;;;;;33.30;11.30;;;0.00;99.90;;;-2.15;76.63;100450.63;10363056;28;96743;-78
2022/01/10 20:16:15;;;;;;;26.07;11.70;;;0.00;99.90;;;-2.17;76.29;100460.25;10370959;28;96674;-78
2022/01/10 20:21:18;;;;;;;21.67;10.10;;;0.00;99.90;;;-2.22;76.52;100457.91;10389471;28;97061;-78
2022/01/10 20:26:22;;;;;;;24.00;10.17;;;0.00;99.90;;;-2.17;76.55;100473.25;10364241;28;98454;-78
2022/01/10 20:31:26;;;;;;;19.70;9.73;;;0.00;99.90;;;-2.11;76.35;100477.31;10362246;28;97085;-78
2022/01/10 20:36:29;;;;;;;22.37;10.13;;;0.10;99.90;;;-2.08;75.85;100477.16;10380713;28;96801;-77
2022/01/10 20:41:32;;;;;;;20.50;9.70;;;0.10;99.90;;;-2.10;75.70;100473.78;10388517;28;96691;-77
2022/01/10 20:46:35;;;;;;;19.97;9.33;;;0.10;99.90;;;-2.13;75.71;100481.78;10370597;28;98363;-77
2022/01/10 20:51:38;;;;;;;28.47;12.20;;;0.10;99.90;;;-2.20;75.90;100486.47;10368976;28;97116;-78
2022/01/10 20:56:41;;;;;;;53.70;19.37;;;0.00;99.90;;;-2.32;75.81;100490.53;10363987;28;97835;-79
2022/01/10 21:01:44;;;;;;;50.73;18.83;;;-0.10;99.90;;;-2.44;75.85;100499.81;10354193;28;97423;-78
2022/01/10 21:06:47;;;;;;;51.70;19.10;;;-0.10;99.90;;;-2.52;75.80;100509.78;10365291;28;96819;-77